Time;durP1;ratioP1;P1;durP2;ratioP2;P2;SDS_P1;SDS_P2;PMS_P1;PMS_P2;Temp;Humidity;BMP_temperature;BMP_pressure;BME280_temperature;BME280_humidity;BME280_pressure;Samples;Min_cycle;Max_cycle;Signal;HPM_P1;HPM_P2
2023/03/30 00:00:20;;;;;;;10.38;2.10;;;;;;;;;;5024185;28;20013;-84
2023/03/30 00:02:52;;;;;;;6.28;2.08;;;;;;;;;;5002584;28;20643;-83
2023/03/30 00:05:18;;;;;;;;;;;;;;;;;;5010252;28;20041;-83
2023/03/30 00:07:46;;;;;;;13.00;2.10;;;;;;;;;;5029676;28;19914;-84
2023/03/30 00:10:16;;;;;;;10.45;2.08;;;;;;;;;;5007688;28;20041;-82
2023/03/30 00:12:42;;;;;;;11.90;2.15;;;;;;;;;;5012025;28;20511;-82
2023/03/30 00:15:09;;;;;;;9.65;1.65;;;;;;;;;;5009194;28;20037;-83
2023/03/30 00:17:35;;;;;;;2.90;1.25;;;;;;;;;;5014787;28;20030;-86
2023/03/30 00:20:01;;;;;;;5.10;1.73;;;;;;;;;;5019537;28;20026;-83
2023/03/30 00:22:27;;;;;;;4.30;1.50;;;;;;;;;;5006210;28;20088;-81
2023/03/30 00:24:52;;;;;;;5.85;1.67;;;;;;;;;;5002375;28;20034;-84
2023/03/30 00:27:18;;;;;;;5.22;1.50;;;;;;;;;;5011009;28;20033;-81
2023/03/30 00:29:43;;;;;;;2.72;1.23;;;;;;;;;;5016804;28;20065;-83
2023/03/30 00:32:08;;;;;;;3.70;1.40;;;;;;;;;;5017279;28;20055;-80
2023/03/30 00:34:33;;;;;;;11.10;1.60;;;;;;;;;;5036244;28;20116;-82
2023/03/30 00:36:59;;;;;;;6.22;1.23;;;;;;;;;;5013237;28;20033;-82
2023/03/30 00:39:25;;;;;;;5.70;2.20;;;;;;;;;;5011505;28;20049;-80
2023/03/30 00:41:51;;;;;;;8.90;1.75;;;;;;;;;;5011175;28;20026;-85
2023/03/30 00:44:53;;;;;;;5.63;1.83;;;;;;;;;;5032282;28;20038;-84
2023/03/30 00:47:20;;;;;;;6.90;1.60;;;;;;;;;;5011693;28;20082;-82
2023/03/30 00:49:45;;;;;;;6.28;1.58;;;;;;;;;;5022455;28;20024;-82
2023/03/30 00:52:11;;;;;;;8.55;1.55;;;;;;;;;;5018968;28;20034;-84
2023/03/30 00:54:38;;;;;;;11.73;1.75;;;;;;;;;;5041575;28;20029;-83
2023/03/30 00:57:05;;;;;;;7.45;1.77;;;;;;;;;;5018420;28;20028;-83
2023/03/30 00:59:31;;;;;;;11.20;2.20;;;;;;;;;;5022434;28;20029;-82
2023/03/30 01:01:56;;;;;;;2.10;1.08;;;;;;;;;;5030433;28;20040;-83
2023/03/30 01:04:21;;;;;;;5.78;1.42;;;;;;;;;;5035556;28;20508;-82
2023/03/30 01:06:48;;;;;;;6.97;1.48;;;;;;;;;;5027158;28;20056;-82
2023/03/30 01:09:14;;;;;;;10.77;1.92;;;;;;;;;;5014524;28;20041;-82
2023/03/30 01:11:41;;;;;;;10.90;1.90;;;;;;;;;;5029709;28;20044;-82
2023/03/30 01:14:10;;;;;;;7.47;2.15;;;;;;;;;;5035689;28;20347;-82
2023/03/30 01:16:35;;;;;;;9.05;2.05;;;;;;;;;;5039011;28;20022;-81
2023/03/30 01:19:04;;;;;;;6.25;1.45;;;;;;;;;;5017792;28;20045;-82
2023/03/30 01:21:54;;;;;;;8.82;1.70;;;;;;;;;;5021549;28;20073;-82
2023/03/30 01:24:52;;;;;;;11.82;1.95;;;;;;;;;;5035540;28;20069;-83
2023/03/30 01:27:44;;;;;;;8.30;1.92;;;;;;;;;;5025407;28;20049;-83
2023/03/30 01:30:51;;;;;;;11.32;2.08;;;;;;;;;;5029150;28;20051;-82
2023/03/30 01:33:41;;;;;;;10.32;1.88;;;;;;;;;;5033515;28;20018;-82
2023/03/30 01:36:44;;;;;;;12.02;2.22;;;;;;;;;;5016058;28;20049;-82
2023/03/30 01:39:27;;;;;;;6.50;1.90;;;;;;;;;;5017382;28;20017;-83
2023/03/30 01:42:06;;;;;;;7.90;1.60;;;;;;;;;;5032085;28;20040;-83
2023/03/30 01:44:51;;;;;;;3.85;1.67;;;;;;;;;;5024571;28;20064;-83
2023/03/30 01:47:38;;;;;;;8.98;2.00;;;;;;;;;;5026918;28;20053;-83
2023/03/30 01:50:22;;;;;;;12.93;2.35;;;;;;;;;;5035790;28;20081;-82
2023/03/30 01:53:02;;;;;;;11.10;2.10;;;;;;;;;;5031764;28;20026;-82
2023/03/30 01:55:35;;;;;;;6.63;1.90;;;;;;;;;;5008311;28;20129;-83
2023/03/30 01:58:13;;;;;;;14.20;2.67;;;;;;;;;;5020015;28;20072;-82
2023/03/30 02:00:42;;;;;;;6.75;1.30;;;;;;;;;;5031207;28;20033;-82
2023/03/30 02:03:16;;;;;;;10.50;1.73;;;;;;;;;;5020762;28;20034;-81
2023/03/30 02:05:44;;;;;;;11.13;1.70;;;;;;;;;;5024783;28;20088;-83
2023/03/30 02:08:17;;;;;;;7.22;1.88;;;;;;;;;;5037328;28;20025;-82
2023/03/30 02:10:45;;;;;;;5.97;1.80;;;;;;;;;;5036120;28;20101;-82
2023/03/30 02:13:12;;;;;;;11.30;2.05;;;;;;;;;;5014970;28;20060;-83
2023/03/30 02:15:41;;;;;;;8.73;2.15;;;;;;;;;;5025724;28;20382;-83
2023/03/30 02:18:07;;;;;;;7.28;2.42;;;;;;;;;;5026702;28;20033;-83
2023/03/30 02:20:33;;;;;;;3.38;1.70;;;;;;;;;;5008039;28;20117;-82
2023/03/30 02:23:00;;;;;;;9.27;1.92;;;;;;;;;;5026482;28;20038;-82
2023/03/30 02:25:26;;;;;;;4.43;1.40;;;;;;;;;;5023948;28;20029;-82
2023/03/30 02:27:52;;;;;;;14.27;2.15;;;;;;;;;;5004716;28;20022;-82
2023/03/30 02:30:18;;;;;;;7.10;1.90;;;;;;;;;;5013523;28;20033;-81
2023/03/30 02:32:47;;;;;;;9.07;2.00;;;;;;;;;;5024249;28;20029;-83
2023/03/30 02:35:41;;;;;;;4.22;2.17;;;;;;;;;;5022696;28;20066;-83
2023/03/30 02:38:42;;;;;;;12.00;2.10;;;;;;;;;;5015650;28;20516;-83
2023/03/30 02:41:27;;;;;;;4.35;1.65;;;;;;;;;;5012385;28;20109;-83
2023/03/30 02:44:11;;;;;;;4.40;1.80;;;;;;;;;;5013294;28;20026;-83
2023/03/30 02:46:57;;;;;;;11.55;2.28;;;;;;;;;;5026827;28;20025;-82
2023/03/30 02:49:22;;;;;;;11.50;2.17;;;;;;;;;;5018394;28;20026;-81
2023/03/30 02:51:53;;;;;;;10.65;1.88;;;;;;;;;;5038540;28;20038;-82
2023/03/30 02:54:18;;;;;;;9.63;2.08;;;;;;;;;;5023514;28;20125;-83
2023/03/30 02:57:10;;;;;;;7.72;1.70;;;;;;;;;;5033466;28;20046;-83
2023/03/30 02:59:51;;;;;;;8.43;2.10;;;;;;;;;;5040679;28;20033;-84
2023/03/30 03:02:22;;;;;;;3.63;1.20;;;;;;;;;;5019799;28;20451;-83
2023/03/30 03:04:51;;;;;;;13.45;1.80;;;;;;;;;;5008900;28;20389;-83
2023/03/30 03:07:18;;;;;;;10.77;3.38;;;;;;;;;;5023348;28;20476;-83
2023/03/30 03:09:43;;;;;;;12.80;2.85;;;;;;;;;;5024791;28;20033;-83
2023/03/30 03:12:09;;;;;;;11.55;2.17;;;;;;;;;;5028215;28;20025;-81
2023/03/30 03:14:35;;;;;;;9.70;2.08;;;;;;;;;;5016870;28;20444;-84
2023/03/30 03:17:00;;;;;;;8.95;1.92;;;;;;;;;;5048857;28;20055;-82
2023/03/30 03:19:25;;;;;;;12.60;2.35;;;;;;;;;;5032986;28;20026;-84
2023/03/30 03:21:51;;;;;;;8.57;1.60;;;;;;;;;;5024430;28;20022;-84
2023/03/30 03:24:17;;;;;;;10.35;1.88;;;;;;;;;;5006083;28;20060;-82
2023/03/30 03:26:43;;;;;;;11.02;1.70;;;;;;;;;;5016381;28;20085;-84
2023/03/30 03:29:09;;;;;;;16.60;2.50;;;;;;;;;;5022724;28;20145;-83
2023/03/30 03:31:34;;;;;;;15.10;2.78;;;;;;;;;;5028778;28;20026;-84
2023/03/30 03:34:00;;;;;;;9.57;2.08;;;;;;;;;;5030170;28;20029;-84
2023/03/30 03:36:26;;;;;;;9.40;1.98;;;;;;;;;;5016443;28;20083;-84
2023/03/30 03:38:51;;;;;;;11.32;2.28;;;;;;;;;;5026339;28;20091;-84
2023/03/30 03:41:16;;;;;;;12.25;2.60;;;;;;;;;;5009244;28;20029;-84
2023/03/30 03:43:42;;;;;;;8.68;2.10;;;;;;;;;;5027488;28;20022;-84
2023/03/30 03:48:37;;;;;;;7.60;2.55;;;;;;;;;;5043202;28;20061;-84
2023/03/30 03:51:02;;;;;;;14.13;2.72;;;;;;;;;;5053695;28;20032;-85
2023/03/30 03:53:28;;;;;;;13.15;2.00;;;;;;;;;;5059156;28;20030;-81
2023/03/30 03:55:54;;;;;;;10.63;2.03;;;;;;;;;;5045366;28;20045;-82
2023/03/30 03:58:20;;;;;;;12.57;2.60;;;;;;;;;;5046021;28;20024;-83
2023/03/30 04:00:45;;;;;;;10.18;2.10;;;;;;;;;;5045240;28;20022;-85
2023/03/30 04:03:11;;;;;;;9.07;2.22;;;;;;;;;;5045860;28;20479;-84
2023/03/30 04:05:37;;;;;;;10.13;1.92;;;;;;;;;;5028244;28;20064;-84
2023/03/30 04:08:03;;;;;;;9.82;2.40;;;;;;;;;;5028539;28;20021;-85
2023/03/30 04:10:34;;;;;;;7.30;1.80;;;;;;;;;;5026812;28;20025;-84
2023/03/30 04:13:00;;;;;;;15.93;2.75;;;;;;;;;;5037265;28;20081;-84
2023/03/30 04:15:26;;;;;;;8.77;2.20;;;;;;;;;;5027627;28;20033;-84
2023/03/30 04:17:56;;;;;;;9.10;2.10;;;;;;;;;;5055881;28;20028;-83
2023/03/30 04:20:23;;;;;;;10.65;2.15;;;;;;;;;;5062240;28;20033;-85
2023/03/30 04:22:52;;;;;;;7.82;2.03;;;;;;;;;;5043659;28;20309;-84
2023/03/30 04:25:24;;;;;;;8.77;1.90;;;;;;;;;;5044686;28;20079;-84
2023/03/30 04:27:50;;;;;;;;;;;;;;;;;;5044569;28;20025;-81
2023/03/30 04:30:16;;;;;;;8.38;1.95;;;;;;;;;;5044600;28;19913;-84
2023/03/30 04:32:43;;;;;;;6.55;1.92;;;;;;;;;;5045084;28;20033;-83
2023/03/30 04:35:09;;;;;;;5.88;2.10;;;;;;;;;;5041345;28;20041;-83
2023/03/30 04:37:40;;;;;;;3.22;1.35;;;;;;;;;;5046264;28;20021;-83
2023/03/30 04:40:08;;;;;;;5.95;1.77;;;;;;;;;;5027522;28;20550;-83
2023/03/30 04:42:36;;;;;;;8.07;2.35;;;;;;;;;;5045762;28;20108;-83
2023/03/30 04:45:07;;;;;;;12.38;2.30;;;;;;;;;;5023828;28;20438;-83
2023/03/30 04:47:33;;;;;;;8.85;2.78;;;;;;;;;;5040493;28;20082;-83
2023/03/30 04:49:59;;;;;;;9.15;2.00;;;;;;;;;;5025542;28;20025;-82
2023/03/30 04:52:25;;;;;;;6.05;2.20;;;;;;;;;;5038749;28;20037;-83
2023/03/30 04:54:50;;;;;;;15.80;2.60;;;;;;;;;;5025965;28;20033;-83
2023/03/30 04:57:16;;;;;;;7.90;2.33;;;;;;;;;;5040313;28;20041;-84
2023/03/30 04:59:42;;;;;;;11.40;2.30;;;;;;;;;;5045339;28;20041;-83
2023/03/30 05:02:10;;;;;;;7.28;2.30;;;;;;;;;;5040258;28;20037;-82
2023/03/30 05:04:36;;;;;;;13.35;2.60;;;;;;;;;;5042258;28;20018;-83
2023/03/30 05:07:01;;;;;;;7.53;2.63;;;;;;;;;;5014962;28;20024;-83
2023/03/30 05:09:27;;;;;;;9.30;2.75;;;;;;;;;;5031332;28;20037;-82
2023/03/30 05:11:52;;;;;;;19.20;2.90;;;;;;;;;;5032006;28;20442;-85
2023/03/30 05:14:18;;;;;;;8.60;2.88;;;;;;;;;;5049233;28;20431;-84
2023/03/30 05:19:16;;;;;;;13.93;3.03;;;;;;;;;;5028011;28;20416;-87
2023/03/30 05:21:42;;;;;;;6.50;2.55;;;;;;;;;;5024526;28;20052;-85
2023/03/30 05:24:07;;;;;;;11.38;2.53;;;;;;;;;;5042207;28;20029;-85
2023/03/30 05:26:32;;;;;;;9.07;2.15;;;;;;;;;;5021449;28;20025;-85
2023/03/30 05:28:58;;;;;;;9.52;2.30;;;;;;;;;;5022417;28;20049;-85
2023/03/30 05:31:24;;;;;;;13.70;2.42;;;;;;;;;;5004732;28;20026;-86
2023/03/30 05:33:51;;;;;;;6.65;2.28;;;;;;;;;;4999684;28;20026;-88
2023/03/30 05:36:16;;;;;;;7.88;2.13;;;;;;;;;;4998227;28;20025;-87
2023/03/30 05:38:42;;;;;;;16.90;2.80;;;;;;;;;;5017590;28;20053;-86
2023/03/30 05:41:07;;;;;;;9.18;2.53;;;;;;;;;;5000187;28;20044;-85
2023/03/30 05:43:33;;;;;;;6.93;3.28;;;;;;;;;;5018521;28;20394;-86
2023/03/30 05:45:59;;;;;;;13.80;2.65;;;;;;;;;;5017179;28;20129;-85
2023/03/30 05:48:25;;;;;;;17.75;2.70;;;;;;;;;;5018713;28;20053;-87
2023/03/30 05:50:50;;;;;;;7.38;2.33;;;;;;;;;;5011222;28;20027;-87
2023/03/30 05:53:16;;;;;;;11.02;2.97;;;;;;;;;;5018487;28;20033;-88
2023/03/30 05:55:51;;;;;;;7.00;2.80;;;;;;;;;;5000287;28;20064;-86
2023/03/30 05:58:16;;;;;;;10.55;2.33;;;;;;;;;;4996384;28;20027;-86
2023/03/30 06:00:43;;;;;;;14.75;3.00;;;;;;;;;;4991695;28;20033;-86
2023/03/30 06:03:10;;;;;;;12.63;2.85;;;;;;;;;;5014382;28;20435;-85
2023/03/30 06:05:37;;;;;;;12.05;2.60;;;;;;;;;;4997952;28;20458;-84
2023/03/30 06:08:04;;;;;;;10.48;2.33;;;;;;;;;;4997507;28;20399;-84
2023/03/30 06:10:29;;;;;;;10.52;2.92;;;;;;;;;;5019178;28;20021;-85
2023/03/30 06:12:55;;;;;;;11.45;1.92;;;;;;;;;;5014424;28;20022;-86
2023/03/30 06:15:21;;;;;;;7.97;2.50;;;;;;;;;;4997837;28;20034;-84
2023/03/30 06:17:46;;;;;;;11.65;2.78;;;;;;;;;;5016565;28;20483;-84
2023/03/30 06:20:11;;;;;;;14.15;2.63;;;;;;;;;;5016573;28;20021;-83
2023/03/30 06:22:40;;;;;;;9.20;2.35;;;;;;;;;;5005065;28;20033;-84
2023/03/30 06:25:08;;;;;;;5.28;2.20;;;;;;;;;;5029975;28;20091;-84
2023/03/30 06:27:34;;;;;;;11.20;1.92;;;;;;;;;;5015108;28;20021;-83
2023/03/30 06:30:00;;;;;;;7.60;2.22;;;;;;;;;;5024969;28;20034;-84
2023/03/30 06:32:26;;;;;;;12.85;2.42;;;;;;;;;;5000407;28;20021;-87
2023/03/30 06:34:52;;;;;;;16.55;3.72;;;;;;;;;;5017932;28;20037;-86
2023/03/30 06:37:18;;;;;;;5.72;2.15;;;;;;;;;;5013392;28;20527;-87
2023/03/30 06:39:44;;;;;;;2.35;1.55;;;;;;;;;;5017114;28;20021;-87
2023/03/30 06:42:10;;;;;;;8.65;2.33;;;;;;;;;;5020905;28;20037;-86
2023/03/30 06:44:35;;;;;;;8.60;2.10;;;;;;;;;;5002601;28;20089;-86
2023/03/30 06:47:01;;;;;;;7.75;2.10;;;;;;;;;;5023740;28;20050;-86
2023/03/30 06:49:26;;;;;;;6.22;1.90;;;;;;;;;;5021298;28;20021;-87
2023/03/30 06:51:51;;;;;;;9.57;2.30;;;;;;;;;;5023312;28;20044;-86
2023/03/30 06:54:19;;;;;;;8.32;2.10;;;;;;;;;;5023907;28;20029;-84
2023/03/30 06:56:46;;;;;;;12.10;2.08;;;;;;;;;;5007987;28;20037;-85
2023/03/30 06:59:12;;;;;;;12.05;2.60;;;;;;;;;;5010153;28;20029;-86
2023/03/30 07:01:37;;;;;;;11.18;2.40;;;;;;;;;;5027803;28;20101;-85
2023/03/30 07:04:03;;;;;;;10.85;1.88;;;;;;;;;;5008270;28;20019;-85
2023/03/30 07:06:28;;;;;;;6.70;1.80;;;;;;;;;;5019099;28;20037;-86
2023/03/30 07:08:54;;;;;;;10.52;2.50;;;;;;;;;;5028669;28;20037;-85
2023/03/30 07:11:19;;;;;;;13.10;2.50;;;;;;;;;;5007009;28;20042;-86
2023/03/30 07:13:44;;;;;;;7.50;2.20;;;;;;;;;;5020218;28;20010;-85
2023/03/30 07:16:10;;;;;;;8.25;1.55;;;;;;;;;;5021932;28;20036;-81
2023/03/30 07:18:35;;;;;;;7.55;1.70;;;;;;;;;;5020196;28;20083;-83
2023/03/30 07:21:00;;;;;;;6.60;2.70;;;;;;;;;;5018700;28;20033;-81
2023/03/30 07:23:26;;;;;;;10.70;2.65;;;;;;;;;;5020438;28;20384;-82
2023/03/30 07:25:51;;;;;;;5.68;2.45;;;;;;;;;;5019251;28;20519;-83
2023/03/30 07:28:17;;;;;;;10.10;2.55;;;;;;;;;;4993102;28;20099;-82
2023/03/30 07:30:42;;;;;;;11.98;2.30;;;;;;;;;;4994132;28;20403;-83
2023/03/30 07:33:08;;;;;;;4.88;2.20;;;;;;;;;;5014060;28;20022;-84
2023/03/30 07:35:34;;;;;;;8.05;2.22;;;;;;;;;;5015093;28;20022;-84
2023/03/30 07:38:00;;;;;;;4.53;2.40;;;;;;;;;;4994392;28;20040;-84
2023/03/30 07:40:25;;;;;;;9.13;2.58;;;;;;;;;;5009255;28;20034;-83
2023/03/30 07:42:50;;;;;;;14.93;2.30;;;;;;;;;;5012087;28;20036;-83
2023/03/30 07:45:16;;;;;;;4.20;1.77;;;;;;;;;;5008377;28;20532;-82
2023/03/30 07:47:41;;;;;;;9.63;2.83;;;;;;;;;;5012216;28;20060;-85
2023/03/30 07:50:08;;;;;;;12.98;2.65;;;;;;;;;;5017419;28;20087;-82
2023/03/30 07:52:34;;;;;;;10.50;2.60;;;;;;;;;;5018298;28;21421;-85
2023/03/30 07:54:59;;;;;;;17.40;3.05;;;;;;;;;;5017749;28;20511;-84
2023/03/30 07:57:25;;;;;;;8.35;2.63;;;;;;;;;;5016870;28;20492;-85
2023/03/30 07:59:50;;;;;;;13.05;3.05;;;;;;;;;;5018424;28;20025;-84
2023/03/30 08:02:16;;;;;;;6.18;2.35;;;;;;;;;;5000900;28;20906;-86
2023/03/30 08:04:43;;;;;;;10.40;2.30;;;;;;;;;;5020911;28;20090;-86
2023/03/30 08:07:10;;;;;;;11.75;2.53;;;;;;;;;;5002540;28;20083;-84
2023/03/30 08:09:35;;;;;;;10.65;2.40;;;;;;;;;;5001709;28;20014;-85
2023/03/30 08:12:01;;;;;;;8.02;2.40;;;;;;;;;;5027371;28;20108;-83
2023/03/30 08:14:26;;;;;;;11.68;2.50;;;;;;;;;;5007253;28;20021;-83
2023/03/30 08:16:53;;;;;;;7.70;2.90;;;;;;;;;;5012072;28;20430;-85
2023/03/30 08:19:19;;;;;;;9.55;2.70;;;;;;;;;;5012399;28;20026;-84
2023/03/30 08:21:46;;;;;;;7.55;2.60;;;;;;;;;;4998705;28;20018;-87
2023/03/30 08:24:11;;;;;;;5.80;2.63;;;;;;;;;;5014142;28;20026;-86
2023/03/30 08:26:37;;;;;;;7.40;2.45;;;;;;;;;;5021165;28;20021;-86
2023/03/30 08:29:02;;;;;;;7.75;2.20;;;;;;;;;;5005800;28;20097;-86
2023/03/30 08:31:31;;;;;;;5.38;2.40;;;;;;;;;;5017712;28;21258;-87
2023/03/30 08:33:56;;;;;;;7.28;2.45;;;;;;;;;;5022074;28;20021;-84
2023/03/30 08:36:22;;;;;;;8.95;2.40;;;;;;;;;;5011469;28;20022;-83
2023/03/30 08:38:47;;;;;;;7.22;1.90;;;;;;;;;;5007904;28;20026;-81
2023/03/30 08:41:28;;;;;;;7.97;2.42;;;;;;;;;;4984298;28;20029;-83
2023/03/30 08:44:07;;;;;;;5.80;2.40;;;;;;;;;;5008179;28;20029;-82
2023/03/30 08:46:32;;;;;;;9.13;2.10;;;;;;;;;;5011140;28;20033;-81
2023/03/30 08:49:02;;;;;;;7.70;2.40;;;;;;;;;;5016949;28;20026;-84
2023/03/30 08:51:30;;;;;;;10.23;2.45;;;;;;;;;;5015525;28;20056;-85
2023/03/30 08:54:02;;;;;;;6.50;2.08;;;;;;;;;;4995221;28;20018;-82
2023/03/30 08:56:34;;;;;;;4.50;2.15;;;;;;;;;;5016896;28;20065;-84
2023/03/30 08:59:02;;;;;;;;;;;;;;;;;;5017790;28;20144;-82
2023/03/30 09:01:40;;;;;;;6.75;2.75;;;;;;;;;;5011878;28;19913;-84
2023/03/30 09:04:15;;;;;;;4.38;2.03;;;;;;;;;;5000881;28;20037;-84
2023/03/30 09:07:00;;;;;;;4.30;2.20;;;;;;;;;;5019112;28;20084;-84
2023/03/30 09:09:28;;;;;;;8.05;2.42;;;;;;;;;;5017171;28;20037;-84
2023/03/30 09:12:04;;;;;;;6.93;2.00;;;;;;;;;;5000384;28;20476;-84
2023/03/30 09:14:38;;;;;;;4.72;2.00;;;;;;;;;;5018096;28;20045;-83
2023/03/30 09:17:20;;;;;;;7.40;2.17;;;;;;;;;;5012497;28;20052;-84
2023/03/30 09:19:57;;;;;;;4.10;1.90;;;;;;;;;;5030346;28;20158;-85
2023/03/30 09:22:31;;;;;;;6.68;2.45;;;;;;;;;;5015035;28;20049;-84
2023/03/30 09:24:58;;;;;;;4.32;1.65;;;;;;;;;;4998688;28;20065;-84
2023/03/30 09:27:48;;;;;;;3.67;2.15;;;;;;;;;;5013920;28;20018;-84
2023/03/30 09:30:33;;;;;;;3.50;1.92;;;;;;;;;;5017260;28;20034;-85
2023/03/30 09:33:21;;;;;;;7.13;1.90;;;;;;;;;;4987107;28;20034;-87
2023/03/30 09:36:04;;;;;;;2.50;1.75;;;;;;;;;;4976616;28;20033;-87
2023/03/30 09:38:31;;;;;;;3.95;1.80;;;;;;;;;;5017353;28;20033;-87
2023/03/30 09:41:12;;;;;;;4.50;2.17;;;;;;;;;;5019279;28;20069;-86
2023/03/30 09:43:43;;;;;;;2.60;1.65;;;;;;;;;;5017928;28;20102;-84
2023/03/30 09:46:09;;;;;;;6.95;1.45;;;;;;;;;;5018109;28;20092;-85
2023/03/30 09:48:48;;;;;;;1.63;1.25;;;;;;;;;;5030700;28;20049;-84
2023/03/30 09:51:31;;;;;;;4.78;1.48;;;;;;;;;;5004681;28;20423;-85
2023/03/30 09:54:04;;;;;;;2.58;1.80;;;;;;;;;;5009396;28;20029;-85
2023/03/30 09:56:33;;;;;;;2.55;1.45;;;;;;;;;;4987452;28;20035;-85
2023/03/30 09:59:27;;;;;;;3.95;1.50;;;;;;;;;;4992318;28;20054;-85
2023/03/30 10:02:08;;;;;;;3.75;1.77;;;;;;;;;;5007206;28;20088;-85
2023/03/30 10:04:52;;;;;;;1.90;1.40;;;;;;;;;;5008583;28;20026;-84
2023/03/30 10:07:23;;;;;;;1.67;1.42;;;;;;;;;;4998101;28;20022;-84
2023/03/30 10:09:48;;;;;;;1.95;1.20;;;;;;;;;;5015844;28;20018;-86
2023/03/30 10:12:14;;;;;;;2.53;1.40;;;;;;;;;;4991451;28;20141;-84
2023/03/30 10:14:40;;;;;;;3.67;1.50;;;;;;;;;;4986963;28;20048;-85
2023/03/30 10:17:06;;;;;;;4.03;2.10;;;;;;;;;;5006700;28;20022;-84
2023/03/30 10:19:33;;;;;;;2.60;1.67;;;;;;;;;;5008744;28;20034;-84
2023/03/30 10:22:02;;;;;;;3.15;1.70;;;;;;;;;;4990500;28;20636;-85
2023/03/30 10:24:30;;;;;;;4.25;1.45;;;;;;;;;;4988546;28;20109;-84
2023/03/30 10:27:16;;;;;;;1.83;1.45;;;;;;;;;;4994626;28;20051;-84
2023/03/30 10:29:47;;;;;;;3.03;1.85;;;;;;;;;;5012596;28;20044;-85
2023/03/30 10:32:24;;;;;;;2.05;1.67;;;;;;;;;;5014874;28;20026;-84
2023/03/30 10:34:53;;;;;;;2.03;1.55;;;;;;;;;;5008532;28;20009;-85
2023/03/30 10:37:29;;;;;;;3.05;1.63;;;;;;;;;;5014422;28;20579;-85
2023/03/30 10:39:56;;;;;;;3.03;1.67;;;;;;;;;;5013542;28;20084;-85
2023/03/30 10:42:25;;;;;;;3.55;1.38;;;;;;;;;;5010212;28;20037;-86
2023/03/30 10:44:55;;;;;;;5.13;1.88;;;;;;;;;;5006653;28;20060;-85
2023/03/30 10:47:38;;;;;;;2.78;1.98;;;;;;;;;;4985156;28;20056;-85
2023/03/30 10:50:22;;;;;;;6.93;3.00;;;;;;;;;;4995723;28;20052;-85
2023/03/30 10:53:26;;;;;;;3.10;1.70;;;;;;;;;;5017635;28;20026;-86
2023/03/30 10:56:32;;;;;;;2.58;1.50;;;;;;;;;;5017666;28;20030;-84
2023/03/30 10:59:16;;;;;;;2.72;1.27;;;;;;;;;;5000953;28;20064;-84
2023/03/30 11:01:45;;;;;;;3.15;1.60;;;;;;;;;;5020135;28;20033;-86
2023/03/30 11:04:29;;;;;;;1.85;1.35;;;;;;;;;;5017042;28;20118;-85
2023/03/30 11:06:56;;;;;;;2.70;1.60;;;;;;;;;;5002499;28;20468;-86
2023/03/30 11:09:28;;;;;;;7.28;1.67;;;;;;;;;;5016080;28;20033;-87
2023/03/30 11:12:04;;;;;;;6.10;1.88;;;;;;;;;;5003137;28;20033;-87
2023/03/30 11:14:45;;;;;;;3.40;2.00;;;;;;;;;;5012554;28;20030;-87
2023/03/30 11:17:39;;;;;;;7.20;1.63;;;;;;;;;;5003116;28;20029;-87
2023/03/30 11:20:31;;;;;;;1.40;1.30;;;;;;;;;;4997864;28;20094;-87
2023/03/30 11:23:18;;;;;;;4.43;1.80;;;;;;;;;;5026678;28;20029;-86
2023/03/30 11:26:00;;;;;;;2.25;1.45;;;;;;;;;;5025039;28;20033;-86
2023/03/30 11:28:52;;;;;;;2.35;1.63;;;;;;;;;;5026938;28;20047;-85
2023/03/30 11:31:43;;;;;;;4.95;1.55;;;;;;;;;;5020810;28;20036;-84
2023/03/30 11:34:32;;;;;;;2.67;1.27;;;;;;;;;;5038999;28;20022;-86
2023/03/30 11:37:05;;;;;;;1.63;1.50;;;;;;;;;;5015830;28;20038;-85
2023/03/30 11:39:35;;;;;;;5.32;1.80;;;;;;;;;;5007217;28;20026;-85
2023/03/30 11:42:25;;;;;;;2.13;1.23;;;;;;;;;;5023366;28;20026;-86
2023/03/30 11:44:51;;;;;;;2.65;1.63;;;;;;;;;;5000137;28;20029;-84
2023/03/30 11:47:51;;;;;;;2.25;1.58;;;;;;;;;;5000285;28;20397;-84
2023/03/30 11:50:38;;;;;;;6.75;1.58;;;;;;;;;;5000179;28;20575;-83
2023/03/30 11:53:41;;;;;;;4.65;1.80;;;;;;;;;;5002773;28;20061;-85
2023/03/30 11:56:15;;;;;;;1.73;1.42;;;;;;;;;;5018571;28;20029;-85
2023/03/30 11:59:19;;;;;;;3.80;1.92;;;;;;;;;;5013348;28;20105;-85
2023/03/30 12:02:09;;;;;;;3.05;1.70;;;;;;;;;;5015023;28;20038;-85
2023/03/30 12:04:49;;;;;;;6.13;1.70;;;;;;;;;;5011935;28;20030;-86
2023/03/30 12:07:33;;;;;;;3.60;1.35;;;;;;;;;;5038612;28;20029;-86
2023/03/30 12:10:01;;;;;;;2.15;1.60;;;;;;;;;;5020599;28;20029;-84
2023/03/30 12:12:35;;;;;;;6.13;1.80;;;;;;;;;;5039314;28;20021;-86
2023/03/30 12:15:21;;;;;;;2.25;1.40;;;;;;;;;;5002609;28;20088;-85
2023/03/30 12:17:52;;;;;;;2.03;1.08;;;;;;;;;;5014637;28;20720;-84
2023/03/30 12:20:26;;;;;;;3.20;1.38;;;;;;;;;;5011547;28;20029;-84
2023/03/30 12:22:58;;;;;;;4.50;1.60;;;;;;;;;;5037272;28;20511;-83
2023/03/30 12:25:27;;;;;;;3.20;1.55;;;;;;;;;;5039605;28;20037;-85
2023/03/30 12:27:59;;;;;;;2.40;1.70;;;;;;;;;;5038128;28;20033;-85
2023/03/30 12:30:40;;;;;;;3.17;1.30;;;;;;;;;;5039852;28;20018;-84
2023/03/30 12:33:17;;;;;;;3.33;1.38;;;;;;;;;;5022281;28;20021;-86
2023/03/30 12:35:48;;;;;;;4.15;1.65;;;;;;;;;;5027497;28;20026;-86
2023/03/30 12:38:20;;;;;;;1.93;1.33;;;;;;;;;;5022045;28;20045;-84
2023/03/30 12:40:54;;;;;;;1.30;1.17;;;;;;;;;;5021079;28;20259;-84
2023/03/30 12:43:40;;;;;;;2.97;1.88;;;;;;;;;;5022929;28;20068;-84
2023/03/30 12:46:40;;;;;;;3.95;1.75;;;;;;;;;;5020934;28;20018;-83
2023/03/30 12:49:32;;;;;;;5.78;1.92;;;;;;;;;;5001186;28;20026;-87
2023/03/30 12:52:00;;;;;;;5.07;1.65;;;;;;;;;;5007546;28;20046;-84
2023/03/30 12:54:42;;;;;;;3.70;1.60;;;;;;;;;;5019533;28;20472;-86
2023/03/30 12:57:33;;;;;;;4.32;1.70;;;;;;;;;;5020917;28;20064;-83
2023/03/30 13:00:01;;;;;;;4.95;1.75;;;;;;;;;;5021360;28;20057;-85
2023/03/30 13:02:38;;;;;;;4.90;1.55;;;;;;;;;;5012086;28;20034;-84
2023/03/30 13:05:16;;;;;;;6.00;1.88;;;;;;;;;;5021300;28;20048;-85
2023/03/30 13:07:42;;;;;;;4.93;2.35;;;;;;;;;;5002808;28;20411;-84
2023/03/30 13:10:29;;;;;;;6.22;1.70;;;;;;;;;;4999886;28;20030;-83
2023/03/30 13:13:00;;;;;;;4.28;1.73;;;;;;;;;;5016880;28;20022;-85
2023/03/30 13:15:33;;;;;;;5.97;1.70;;;;;;;;;;5015555;28;20033;-85
2023/03/30 13:18:21;;;;;;;4.45;1.50;;;;;;;;;;5013057;28;20040;-85
2023/03/30 13:20:47;;;;;;;5.32;1.45;;;;;;;;;;5016258;28;20054;-85
2023/03/30 13:23:12;;;;;;;1.48;0.85;;;;;;;;;;5017261;28;20045;-85
2023/03/30 13:26:08;;;;;;;1.65;1.23;;;;;;;;;;5015745;28;20087;-85
2023/03/30 13:28:42;;;;;;;9.55;1.52;;;;;;;;;;5021540;28;20032;-84
2023/03/30 13:31:23;;;;;;;1.75;1.15;;;;;;;;;;4997510;28;20041;-84
2023/03/30 13:33:59;;;;;;;2.03;1.27;;;;;;;;;;4979700;28;20026;-84
2023/03/30 13:36:29;;;;;;;2.17;1.15;;;;;;;;;;4979579;28;20030;-84
2023/03/30 13:39:04;;;;;;;2.05;0.80;;;;;;;;;;4980386;28;20026;-84
2023/03/30 13:41:36;;;;;;;7.00;1.60;;;;;;;;;;4995283;28;20113;-85
2023/03/30 13:44:32;;;;;;;3.95;0.98;;;;;;;;;;4997355;28;20022;-85
2023/03/30 13:47:03;;;;;;;2.63;1.38;;;;;;;;;;5015419;28;20404;-86
2023/03/30 13:49:55;;;;;;;1.35;0.98;;;;;;;;;;5025114;28;20026;-84
2023/03/30 13:52:32;;;;;;;1.73;1.25;;;;;;;;;;4975173;28;20036;-84
2023/03/30 13:54:58;;;;;;;3.58;1.70;;;;;;;;;;4999851;28;20064;-84
2023/03/30 13:57:35;;;;;;;2.78;0.93;;;;;;;;;;5003477;28;20033;-84
2023/03/30 14:00:09;;;;;;;3.13;1.10;;;;;;;;;;5018227;28;20034;-84
2023/03/30 14:02:39;;;;;;;3.60;1.60;;;;;;;;;;5022100;28;20022;-85
2023/03/30 14:05:33;;;;;;;5.63;1.50;;;;;;;;;;4992259;28;20049;-85
2023/03/30 14:07:58;;;;;;;2.78;1.50;;;;;;;;;;4998126;28;20083;-84
2023/03/30 14:10:24;;;;;;;3.47;1.40;;;;;;;;;;5003120;28;20026;-83
2023/03/30 14:12:53;;;;;;;3.95;1.65;;;;;;;;;;5029702;28;20017;-84
2023/03/30 14:15:21;;;;;;;5.53;1.60;;;;;;;;;;4999178;28;20030;-85
2023/03/30 14:17:53;;;;;;;4.45;1.13;;;;;;;;;;5023644;28;20033;-85
2023/03/30 14:20:43;;;;;;;3.17;1.10;;;;;;;;;;4989919;28;20026;-84
2023/03/30 14:23:40;;;;;;;1.25;1.02;;;;;;;;;;4996421;28;20026;-84
2023/03/30 14:26:13;;;;;;;4.75;1.52;;;;;;;;;;4991862;28;21036;-85
2023/03/30 14:28:41;;;;;;;5.85;1.48;;;;;;;;;;5015281;28;20030;-84
2023/03/30 14:31:18;;;;;;;2.40;1.38;;;;;;;;;;4995520;28;20014;-85
2023/03/30 14:33:44;;;;;;;4.10;1.70;;;;;;;;;;5011210;28;20021;-85
2023/03/30 14:36:12;;;;;;;0.98;0.82;;;;;;;;;;5012436;28;20034;-84
2023/03/30 14:38:40;;;;;;;3.50;1.25;;;;;;;;;;5015794;28;20109;-84
2023/03/30 14:41:17;;;;;;;4.53;1.55;;;;;;;;;;4992232;28;20035;-84
2023/03/30 14:43:51;;;;;;;1.90;1.33;;;;;;;;;;4994462;28;20547;-85
2023/03/30 14:46:16;;;;;;;1.58;1.08;;;;;;;;;;5010887;28;20026;-84
2023/03/30 14:48:44;;;;;;;2.53;1.10;;;;;;;;;;4989280;28;20439;-85
2023/03/30 14:51:33;;;;;;;3.03;1.35;;;;;;;;;;5010150;28;20052;-83
2023/03/30 14:53:59;;;;;;;0.82;0.68;;;;;;;;;;5005647;28;20030;-85
2023/03/30 14:56:25;;;;;;;4.75;1.40;;;;;;;;;;5016793;28;20153;-84
2023/03/30 14:58:52;;;;;;;3.05;1.20;;;;;;;;;;4998212;28;20041;-84
2023/03/30 15:01:24;;;;;;;3.28;1.00;;;;;;;;;;4996294;28;20621;-84
2023/03/30 15:03:51;;;;;;;3.72;0.98;;;;;;;;;;4997450;28;20034;-85
2023/03/30 15:06:29;;;;;;;2.15;0.85;;;;;;;;;;5017338;28;20360;-84
2023/03/30 15:09:00;;;;;;;1.00;0.65;;;;;;;;;;5010909;28;20159;-83
2023/03/30 15:11:28;;;;;;;0.60;0.60;;;;;;;;;;5015534;28;20036;-83
2023/03/30 15:14:01;;;;;;;4.03;0.85;;;;;;;;;;4997930;28;20025;-84